Naples, FL

9:40 PM EDT on June 01, 2015 (GMT -0400)
Charlotte County | | Change Station
CLOSE
Current Station
Airport
Location: Punta Gorda,
Elevation: 26 ft
Nearby Weather Stations

Elev 26 ft 26.92 °N, 81.99 °W | Updated 9 minutes ago

Partly Cloudy
Partly Cloudy
72 °F
Feels Like 72 °F
N
8
Wind Variable Wind from NNE

Today
High -- | Low -- °F
--% Chance of Precip.
Yesterday
High -- | Low -- °F
Precip. -- in
6:35 AM 8:15 PM
Full, 100% visible
Pressure 30.08 in
Visibility 10.0 miles
Clouds Few 6000 ft
Few 12000 ft
Dew Point 70 °F
Humidity 93%
Rainfall 0.41 in
Snow Depth Not available.
UV 0 out of 12
Pollen 3.30 out of 12
Air Quality Not available.
Flu Activity Sporadic
SPECI KPGD 020131Z AUTO 02007KT 10SM FEW060 FEW120 22/21 A3008 RMK AO2 LTG DSNT N AND NW RAB0054E23 P0000 T02220211

More Conditions Fewer Conditions

Pressure 30.08 in
Visibility 10.0 miles
Clouds Few 6000 ft
Few 12000 ft
Dew Point 70 °F
Humidity 93%
Rainfall 0.41 in
Snow Depth Not available.
UV 0 out of 12
Pollen 3.30 out of 12
Air Quality Not available.
Flu Activity Sporadic
SPECI KPGD 020131Z AUTO 02007KT 10SM FEW060 FEW120 22/21 A3008 RMK AO2 LTG DSNT N AND NW RAB0054E23 P0000 T02220211

More Conditions Fewer Conditions

10-Day Weather Forecast

Almanac

Astronomy

Jun. 01, 2015 Rise Set
Actual Time
Civil Twilight
Nautical Twilight
Astronomical Twilight
Moon
Length of Visible Light
Length of Day
Tomorrow will be .
, % of the Moon is Illuminated

Today's Extremes

State Highs State Lows

Community

WunderPhotos

Upload Photos

1,825,851 photos uploaded!

WunderBlogs® & News

Nearby

Air Quality

  Air Quality AQ Index Pollutant
Not available.

Snow Depth

Station Depth Elevation

Earthquake Activity

City Distance Mag. Time & Date
Minimum magnitude displayed is 2.5.

Coastal Water Temperatures

Place Temperature

Stations

Nearby Weather Stations

Station Location Temp. Windchill Dew Point Humidity Wind Precip. Elev Updated Type